ADDS METAR Data INFO
IDs: Format: Raw Decoded Include TAF

Data at: 0849 UTC 22 Feb 2018

PAQT 220753Z AUTO 20009KT 10SM CLR M11/M12 A2986 RMK SLP111 T11061122 TSNO VIA AUTODIAL
PAQT 220653Z AUTO 20008KT 10SM OVC090 M11/M12 A2989 RMK UPE0558 SLP121 P0000 T11061117 TSNO VIA AUTODIAL
PAQT 220553Z AUTO 19007KT 10SM UP SCT048 OVC095 M11/M12 A2992 RMK UPB44 SLP133 P0000 60000 T11061122 11061 21111 57027 TSNO VIA AUTODIAL
PAQT 220453Z AUTO 21006KT 10SM OVC110 M11/M12 A2995 RMK UPB0357E28 SLP143 P0000 T11061117 TSNO VIA AUTODIAL
PAQT 220353Z AUTO 18006KT 10SM CLR M11/M11 A2997 RMK UPB07E53 SLP150 P0000 T11061111 TSNO VIA AUTODIAL
PAQT 212353Z AUTO 26013KT 1 3/4SM -SN BR BKN034 OVC047 M06/M07 A3005 RMK UPB44E45SNB45 SLP176 P0000 60000 T10611072 11044 21072 58009 TSNO VIA AUTODIAL
PAQT 212351Z AUTO 25013KT 2SM -SN BR BKN034 BKN047 OVC055 M06/M07 A3005 RMK UPB44E45SNB45 P0000 TSNO VIA AUTODIAL
PAQT 212253Z AUTO 24014KT 10SM FEW020 SCT044 BKN050 M07/M08 A3007 RMK UPE2158 SLP183 P0000 T10671083 TSNO VIA AUTODIAL
PAQT 212222Z AUTO 24015KT 9SM SCT015 BKN034 OVC055 M06/M07 A3008 RMK UPE2158 P0000 T10561067 TSNO VIA AUTODIAL
PAQT 212207Z AUTO 24014KT 7SM BKN015 OVC035 M06/M07 A3008 RMK UPE2158 P0000 T10561067 TSNO VIA AUTODIAL
PAQT 212200Z AUTO 24014KT 10SM BKN013 OVC035 M06/M07 A3008 RMK UPE2158 P0000 T10561067 TSNO VIA AUTODIAL
PAQT 212153Z AUTO 24014KT 8SM UP SCT013 BKN029 OVC035 M06/M07 A3008 RMK UPB42 SLP185 P0000 T10561067 TSNO VIA AUTODIAL
PAQT 212151Z AUTO 24015KT 7SM UP SCT013 BKN029 OVC035 M06/M07 A3008 RMK UPB42 P0000 TSNO VIA AUTODIAL
PAQT 212146Z AUTO 24014KT 6SM UP BR BKN013 BKN029 OVC035 M06/M07 A3007 RMK UPB42 P0000 T10561067 TSNO VIA AUTODIAL
PAQT 212053Z AUTO 24016KT 10SM BKN021 OVC035 M06/M07 A3008 RMK SLP185 T10611067 53004 TSNO VIA AUTODIAL
PAQT 211953Z AUTO 24016KT 10SM BKN036 M06/M06 A3006 RMK SLP180 T10561061 TSNO VIA AUTODIAL
PAQT 211853Z AUTO 24018KT 10SM OVC035 M04/M05 A3006 RMK SLP181 T10441050 TSNO VIA AUTODIAL
PAQT 211753Z AUTO 23013KT 10SM SCT010 SCT024 OVC032 M04/M05 A3006 RMK SLP181 60000 T10441050 11028 21044 51006 TSNO VIA AUTODIAL
PAQT 211751Z AUTO 23013KT 10SM SCT010 SCT024 OVC032 M04/M05 A3006 RMK TSNO VIA AUTODIAL
PAQT 211742Z AUTO 24011KT 10SM BKN010 BKN023 OVC033 M04/M05 A3006 RMK CIG 009V015 T10441050 TSNO VIA AUTODIAL
PAQT 211735Z AUTO 25011KT 10SM BKN009 OVC015 M04/M05 A3006 RMK CIG 009V013 T10441050 TSNO VIA AUTODIAL
PAQT 211727Z AUTO 24012KT 10SM SCT009 OVC015 M04/M05 A3006 RMK T10441050 TSNO VIA AUTODIAL
PAQT 211653Z AUTO 23015KT 10SM BKN019 OVC028 M04/M05 A3006 RMK SLP180 T10441050 TSNO VIA AUTODIAL
PAQT 211638Z AUTO 23016KT 10SM BKN020 OVC032 M04/M06 A3006 RMK T10441056 TSNO VIA AUTODIAL
PAQT 211618Z AUTO 24015KT 10SM SCT021 BKN032 OVC044 M04/M06 A3006 RMK T10441056 TSNO VIA AUTODIAL
PAQT 211553Z AUTO 24020KT 10SM BKN024 OVC034 M04/M06 A3006 RMK PK WND 24026/1514 SLP178 T10391056 TSNO VIA AUTODIAL
PAQT 211453Z AUTO 24020KT 7SM OVC028 M04/M06 A3005 RMK PK WND 25031/1437 UPE42 SLP176 P0000 60000 T10441056 51014 TSNO VIA AUTODIAL
PAQT 211353Z AUTO 25022KT 4SM UP BR SCT020 OVC027 M03/M04 A3004 RMK PK WND 25033/1301 UPB15E30B46SNE15B30E46 SLP173 P0000 T10331044 TSNO VIA AUTODIAL
PAQT 211321Z AUTO 25022KT 4SM UP BR SCT022 OVC028 M03/M04 A3004 RMK PK WND 25033/1301 UPB15SNE15 P0000 T10281039 TSNO VIA AUTODIAL
PAQT 211253Z AUTO 24024KT 2 1/2SM -SN BR SCT020 BKN028 OVC037 M03/M04 A3003 RMK PK WND 24035/1158 UPE16B37E40SNB02E14B16E37B40 SLP170 P0000 T10281039 TSNO VIA AUTODIAL
PAQT 211239Z AUTO 24026G31KT 2 1/2SM UP BR FEW020 BKN028 OVC060 M03/M04 A3003 RMK PK WND 24035/1158 UPE16B37SNB02E14B16E37 P0000 T10281039 TSNO VIA AUTODIAL
PAQT 211232Z AUTO 24024KT 1SM -SN BR FEW027 BKN033 OVC055 M03/M04 A3003 RMK PK WND 24035/1158 UPE16SNB02E14B16 P0000 T10281039 TSNO VIA AUTODIAL
PAQT 211228Z AUTO 24025KT 3/4SM -SN BR BKN024 BKN042 OVC055 M03/M04 A3002 RMK PK WND 24035/1158 UPE16SNB02E14B16 P0000 T10281039 TSNO VIA AUTODIAL
PAQT 211220Z AUTO 24027KT 1SM -SN BR BKN028 OVC042 M03/M04 A3002 RMK PK WND 24035/1158 UPE16SNB02E14B16 P0000 T10281039 TSNO VIA AUTODIAL
PAQT 210653Z AUTO 22023KT 8SM CLR M05/M07 A2996 RMK PK WND 22027/0648 SLP146 T10501072 TSNO VIA AUTODIAL
PAQT 210553Z AUTO 20017KT 10SM SCT120 M06/M08 A2996 RMK SLP147 60000 T10611078 11033 21061 50002 TSNO VIA AUTODIAL